sensor_id;sensor_type;location;lat;lon;timestamp;pressure;altitude;pressure_sealevel;temperature;humidity
38812;BME280;24553;51.640;-0.752;2023-03-03T00:00:16;101965.19;;;5.39;100.00
38812;BME280;24553;51.640;-0.752;2023-03-03T00:02:42;101963.41;;;5.39;100.00
38812;BME280;24553;51.640;-0.752;2023-03-03T00:05:08;101957.09;;;5.31;100.00
38812;BME280;24553;51.640;-0.752;2023-03-03T00:07:34;101968.56;;;5.18;100.00
38812;BME280;24553;51.640;-0.752;2023-03-03T00:09:59;101961.38;;;5.20;100.00
38812;BME280;24553;51.640;-0.752;2023-03-03T00:12:27;101961.88;;;5.25;100.00
38812;BME280;24553;51.640;-0.752;2023-03-03T00:14:53;101964.25;;;5.29;100.00
38812;BME280;24553;51.640;-0.752;2023-03-03T00:17:24;101971.44;;;5.38;100.00
38812;BME280;24553;51.640;-0.752;2023-03-03T00:19:50;101965.81;;;5.42;100.00
38812;BME280;24553;51.640;-0.752;2023-03-03T00:22:38;101968.19;;;5.45;100.00
38812;BME280;24553;51.640;-0.752;2023-03-03T00:25:32;101965.31;;;5.49;100.00
38812;BME280;24553;51.640;-0.752;2023-03-03T00:30:43;101967.69;;;5.52;100.00
38812;BME280;24553;51.640;-0.752;2023-03-03T00:33:31;101963.41;;;5.51;100.00
38812;BME280;24553;51.640;-0.752;2023-03-03T00:36:24;101970.69;;;5.47;100.00
38812;BME280;24553;51.640;-0.752;2023-03-03T00:38:53;101970.09;;;5.43;100.00
38812;BME280;24553;51.640;-0.752;2023-03-03T00:41:24;101971.88;;;5.54;100.00
38812;BME280;24553;51.640;-0.752;2023-03-03T00:43:51;101970.81;;;5.68;100.00
38812;BME280;24553;51.640;-0.752;2023-03-03T00:46:18;101969.13;;;5.67;100.00
38812;BME280;24553;51.640;-0.752;2023-03-03T00:48:45;101973.56;;;5.66;100.00
38812;BME280;24553;51.640;-0.752;2023-03-03T00:53:48;101975.00;;;5.71;100.00
38812;BME280;24553;51.640;-0.752;2023-03-03T00:56:14;101969.94;;;5.67;100.00
38812;BME280;24553;51.640;-0.752;2023-03-03T00:58:40;101977.03;;;5.56;100.00
38812;BME280;24553;51.640;-0.752;2023-03-03T01:01:05;101980.38;;;5.58;100.00
38812;BME280;24553;51.640;-0.752;2023-03-03T01:03:31;101977.03;;;5.56;100.00
38812;BME280;24553;51.640;-0.752;2023-03-03T01:05:56;101982.41;;;5.54;100.00
38812;BME280;24553;51.640;-0.752;2023-03-03T01:08:22;101975.81;;;5.60;100.00
38812;BME280;24553;51.640;-0.752;2023-03-03T01:10:52;101974.63;;;5.64;100.00
38812;BME280;24553;51.640;-0.752;2023-03-03T01:13:20;101984.03;;;5.78;100.00
38812;BME280;24553;51.640;-0.752;2023-03-03T01:15:46;101988.94;;;5.82;100.00
38812;BME280;24553;51.640;-0.752;2023-03-03T01:18:12;101981.63;;;5.86;100.00
38812;BME280;24553;51.640;-0.752;2023-03-03T01:20:38;101984.41;;;5.84;100.00
38812;BME280;24553;51.640;-0.752;2023-03-03T01:23:04;101995.88;;;5.83;100.00
38812;BME280;24553;51.640;-0.752;2023-03-03T01:25:29;102001.13;;;5.83;100.00
38812;BME280;24553;51.640;-0.752;2023-03-03T01:27:55;101991.56;;;5.82;100.00
38812;BME280;24553;51.640;-0.752;2023-03-03T01:30:21;101997.31;;;5.87;100.00
38812;BME280;24553;51.640;-0.752;2023-03-03T01:32:46;102000.91;;;5.86;100.00
38812;BME280;24553;51.640;-0.752;2023-03-03T01:35:11;101997.81;;;5.81;100.00
38812;BME280;24553;51.640;-0.752;2023-03-03T01:37:37;102001.63;;;5.77;100.00
38812;BME280;24553;51.640;-0.752;2023-03-03T01:40:04;101996.34;;;5.88;100.00
38812;BME280;24553;51.640;-0.752;2023-03-03T01:42:30;102001.75;;;5.87;100.00
38812;BME280;24553;51.640;-0.752;2023-03-03T01:45:24;101994.56;;;5.89;100.00
38812;BME280;24553;51.640;-0.752;2023-03-03T01:47:54;101995.03;;;5.83;100.00
38812;BME280;24553;51.640;-0.752;2023-03-03T01:50:40;101994.09;;;5.73;100.00
38812;BME280;24553;51.640;-0.752;2023-03-03T01:53:14;101989.09;;;5.69;100.00
38812;BME280;24553;51.640;-0.752;2023-03-03T01:55:41;101996.72;;;5.73;100.00
38812;BME280;24553;51.640;-0.752;2023-03-03T01:58:26;101992.19;;;5.75;100.00
38812;BME280;24553;51.640;-0.752;2023-03-03T02:01:00;101994.34;;;5.69;100.00
38812;BME280;24553;51.640;-0.752;2023-03-03T02:03:26;101991.97;;;5.66;100.00
38812;BME280;24553;51.640;-0.752;2023-03-03T02:05:55;101999.63;;;5.69;100.00
38812;BME280;24553;51.640;-0.752;2023-03-03T02:08:27;101995.78;;;5.74;100.00
38812;BME280;24553;51.640;-0.752;2023-03-03T02:10:56;102001.38;;;5.80;100.00
38812;BME280;24553;51.640;-0.752;2023-03-03T02:13:22;101999.00;;;5.77;100.00
38812;BME280;24553;51.640;-0.752;2023-03-03T02:15:47;102010.72;;;5.84;100.00
38812;BME280;24553;51.640;-0.752;2023-03-03T02:18:15;102004.16;;;5.79;100.00
38812;BME280;24553;51.640;-0.752;2023-03-03T02:23:37;102005.94;;;5.89;100.00
38812;BME280;24553;51.640;-0.752;2023-03-03T02:26:09;102008.81;;;5.98;100.00
38812;BME280;24553;51.640;-0.752;2023-03-03T02:28:38;102006.06;;;5.99;100.00
38812;BME280;24553;51.640;-0.752;2023-03-03T02:31:16;102012.75;;;5.92;100.00
38812;BME280;24553;51.640;-0.752;2023-03-03T02:33:44;102006.91;;;6.00;100.00
38812;BME280;24553;51.640;-0.752;2023-03-03T02:36:18;102005.22;;;5.99;100.00
38812;BME280;24553;51.640;-0.752;2023-03-03T02:39:07;102005.56;;;6.05;100.00
38812;BME280;24553;51.640;-0.752;2023-03-03T02:41:41;102001.03;;;5.96;100.00
38812;BME280;24553;51.640;-0.752;2023-03-03T02:44:11;102004.00;;;6.03;100.00
38812;BME280;24553;51.640;-0.752;2023-03-03T02:46:39;102013.81;;;6.01;100.00
38812;BME280;24553;51.640;-0.752;2023-03-03T02:49:06;102006.03;;;5.88;100.00
38812;BME280;24553;51.640;-0.752;2023-03-03T02:51:32;102008.34;;;5.81;100.00
38812;BME280;24553;51.640;-0.752;2023-03-03T02:53:58;102008.81;;;5.86;100.00
38812;BME280;24553;51.640;-0.752;2023-03-03T02:56:23;102017.78;;;5.95;100.00
38812;BME280;24553;51.640;-0.752;2023-03-03T02:58:49;102013.25;;;5.97;100.00
38812;BME280;24553;51.640;-0.752;2023-03-03T03:01:14;102006.03;;;5.88;100.00
38812;BME280;24553;51.640;-0.752;2023-03-03T03:03:39;102013.69;;;5.91;100.00
38812;BME280;24553;51.640;-0.752;2023-03-03T03:06:06;102015.16;;;5.95;100.00
38812;BME280;24553;51.640;-0.752;2023-03-03T03:08:31;102010.72;;;5.96;100.00
38812;BME280;24553;51.640;-0.752;2023-03-03T03:10:56;102011.06;;;6.02;100.00
38812;BME280;24553;51.640;-0.752;2023-03-03T03:13:23;102018.63;;;6.07;100.00
38812;BME280;24553;51.640;-0.752;2023-03-03T03:15:48;102014.53;;;6.03;100.00
38812;BME280;24553;51.640;-0.752;2023-03-03T03:18:14;102008.06;;;6.07;100.00
38812;BME280;24553;51.640;-0.752;2023-03-03T03:20:41;102008.31;;;6.04;100.00
38812;BME280;24553;51.640;-0.752;2023-03-03T03:23:07;102012.63;;;6.05;100.00
38812;BME280;24553;51.640;-0.752;2023-03-03T03:25:32;102009.03;;;6.06;100.00
38812;BME280;24553;51.640;-0.752;2023-03-03T03:27:58;102014.06;;;5.98;100.00
38812;BME280;24553;51.640;-0.752;2023-03-03T03:30:23;102006.88;;;5.88;100.00
38812;BME280;24553;51.640;-0.752;2023-03-03T03:32:48;102006.38;;;6.06;100.00
38812;BME280;24553;51.640;-0.752;2023-03-03T03:35:14;102002.03;;;6.16;100.00
38812;BME280;24553;51.640;-0.752;2023-03-03T03:37:41;102008.75;;;6.20;100.00
38812;BME280;24553;51.640;-0.752;2023-03-03T03:40:07;102008.25;;;6.26;100.00
38812;BME280;24553;51.640;-0.752;2023-03-03T03:42:32;102013.97;;;6.31;100.00
38812;BME280;24553;51.640;-0.752;2023-03-03T03:44:58;102003.81;;;6.27;100.00
38812;BME280;24553;51.640;-0.752;2023-03-03T03:47:23;102010.75;;;6.28;100.00
38812;BME280;24553;51.640;-0.752;2023-03-03T03:49:48;102007.16;;;6.29;100.00
38812;BME280;24553;51.640;-0.752;2023-03-03T03:52:14;102002.25;;;6.24;100.00
38812;BME280;24553;51.640;-0.752;2023-03-03T03:54:39;102001.31;;;6.25;100.00
38812;BME280;24553;51.640;-0.752;2023-03-03T03:57:04;102006.31;;;6.28;100.00
38812;BME280;24553;51.640;-0.752;2023-03-03T03:59:30;102003.59;;;6.19;100.00
38812;BME280;24553;51.640;-0.752;2023-03-03T04:01:55;102002.41;;;6.11;100.00
38812;BME280;24553;51.640;-0.752;2023-03-03T04:04:21;102004.81;;;6.15;100.00
38812;BME280;24553;51.640;-0.752;2023-03-03T04:06:47;102005.56;;;6.05;100.00
38812;BME280;24553;51.640;-0.752;2023-03-03T04:09:13;102016.34;;;6.02;100.00
38812;BME280;24553;51.640;-0.752;2023-03-03T04:11:38;102012.63;;;5.94;100.00
38812;BME280;24553;51.640;-0.752;2023-03-03T04:14:04;102007.84;;;5.87;100.00
38812;BME280;24553;51.640;-0.752;2023-03-03T04:16:29;102014.19;;;5.96;100.00
38812;BME280;24553;51.640;-0.752;2023-03-03T04:18:54;102008.91;;;6.07;100.00
38812;BME280;24553;51.640;-0.752;2023-03-03T04:21:20;102009.50;;;6.11;100.00
38812;BME280;24553;51.640;-0.752;2023-03-03T04:23:45;102011.88;;;6.14;100.00
38812;BME280;24553;51.640;-0.752;2023-03-03T04:26:10;102009.47;;;6.22;100.00
38812;BME280;24553;51.640;-0.752;2023-03-03T04:28:36;102013.03;;;6.21;100.00
38812;BME280;24553;51.640;-0.752;2023-03-03T04:31:01;102011.75;;;6.16;100.00
38812;BME280;24553;51.640;-0.752;2023-03-03T04:33:27;102014.19;;;6.07;100.00
38812;BME280;24553;51.640;-0.752;2023-03-03T04:35:52;102010.72;;;5.96;100.00
38812;BME280;24553;51.640;-0.752;2023-03-03T04:38:17;102013.69;;;5.91;100.00
38812;BME280;24553;51.640;-0.752;2023-03-03T04:40:43;102016.97;;;5.95;100.00
38812;BME280;24553;51.640;-0.752;2023-03-03T04:43:09;102014.31;;;5.95;100.00
38812;BME280;24553;51.640;-0.752;2023-03-03T04:45:34;102015.16;;;5.95;100.00
38812;BME280;24553;51.640;-0.752;2023-03-03T04:48:00;102026.75;;;5.93;100.00
38812;BME280;24553;51.640;-0.752;2023-03-03T04:50:26;102014.78;;;5.88;100.00
38812;BME280;24553;51.640;-0.752;2023-03-03T04:52:51;102010.38;;;5.89;100.00
38812;BME280;24553;51.640;-0.752;2023-03-03T04:55:17;102014.78;;;5.88;100.00
38812;BME280;24553;51.640;-0.752;2023-03-03T04:57:42;102014.78;;;5.88;100.00
38812;BME280;24553;51.640;-0.752;2023-03-03T05:00:09;102011.44;;;5.86;100.00
38812;BME280;24553;51.640;-0.752;2023-03-03T05:02:37;102016.25;;;5.81;100.00
38812;BME280;24553;51.640;-0.752;2023-03-03T05:05:03;102008.81;;;5.75;100.00
38812;BME280;24553;51.640;-0.752;2023-03-03T05:07:29;102008.13;;;5.73;100.00
38812;BME280;24553;51.640;-0.752;2023-03-03T05:09:54;102013.25;;;5.75;100.00
38812;BME280;24553;51.640;-0.752;2023-03-03T05:12:19;102016.38;;;5.68;100.00
38812;BME280;24553;51.640;-0.752;2023-03-03T05:14:45;102020.31;;;5.74;100.00
38812;BME280;24553;51.640;-0.752;2023-03-03T05:17:10;102023.78;;;5.75;100.00
38812;BME280;24553;51.640;-0.752;2023-03-03T05:19:36;102014.69;;;5.79;100.00
38812;BME280;24553;51.640;-0.752;2023-03-03T05:22:01;102019.13;;;5.78;100.00
38812;BME280;24553;51.640;-0.752;2023-03-03T05:24:26;102016.09;;;5.83;100.00
38812;BME280;24553;51.640;-0.752;2023-03-03T05:26:52;102016.72;;;5.86;100.00
38812;BME280;24553;51.640;-0.752;2023-03-03T05:29:18;102022.81;;;5.87;100.00
38812;BME280;24553;51.640;-0.752;2023-03-03T05:31:43;102018.94;;;5.91;100.00
38812;BME280;24553;51.640;-0.752;2023-03-03T05:34:08;102020.88;;;6.00;100.00
38812;BME280;24553;51.640;-0.752;2023-03-03T05:36:34;102015.00;;;6.08;100.00
38812;BME280;24553;51.640;-0.752;2023-03-03T05:38:59;102018.09;;;6.13;100.00
38812;BME280;24553;51.640;-0.752;2023-03-03T05:41:25;102018.09;;;6.13;100.00
38812;BME280;24553;51.640;-0.752;2023-03-03T05:43:50;102022.66;;;6.11;100.00
38812;BME280;24553;51.640;-0.752;2023-03-03T05:46:15;102019.44;;;6.07;100.00
38812;BME280;24553;51.640;-0.752;2023-03-03T05:48:41;102011.78;;;6.04;100.00
38812;BME280;24553;51.640;-0.752;2023-03-03T05:51:07;102017.75;;;6.06;100.00
38812;BME280;24553;51.640;-0.752;2023-03-03T05:53:32;102017.19;;;6.03;100.00
38812;BME280;24553;51.640;-0.752;2023-03-03T05:55:58;102012.88;;;6.02;100.00
38812;BME280;24553;51.640;-0.752;2023-03-03T05:58:23;102018.50;;;5.97;100.00
38812;BME280;24553;51.640;-0.752;2023-03-03T06:00:49;102013.25;;;5.97;100.00
38812;BME280;24553;51.640;-0.752;2023-03-03T06:03:14;102009.13;;;5.93;100.00
38812;BME280;24553;51.640;-0.752;2023-03-03T06:05:41;102010.59;;;5.86;100.00
38812;BME280;24553;51.640;-0.752;2023-03-03T06:08:06;102007.72;;;5.89;100.00
38812;BME280;24553;51.640;-0.752;2023-03-03T06:10:32;102010.94;;;5.93;100.00
38812;BME280;24553;51.640;-0.752;2023-03-03T06:12:57;102004.25;;;5.88;100.00
38812;BME280;24553;51.640;-0.752;2023-03-03T06:15:23;102006.88;;;5.88;100.00
38812;BME280;24553;51.640;-0.752;2023-03-03T06:17:48;102009.78;;;5.97;100.00
38812;BME280;24553;51.640;-0.752;2023-03-03T06:20:13;102014.28;;;6.06;100.00
38812;BME280;24553;51.640;-0.752;2023-03-03T06:22:39;102010.56;;;6.08;100.00
38812;BME280;24553;51.640;-0.752;2023-03-03T06:25:04;102009.50;;;6.11;100.00
38812;BME280;24553;51.640;-0.752;2023-03-03T06:27:30;102014.75;;;6.11;100.00
38812;BME280;24553;51.640;-0.752;2023-03-03T06:29:55;102019.28;;;6.20;100.00
38812;BME280;24553;51.640;-0.752;2023-03-03T06:32:20;102020.13;;;6.21;100.00
38812;BME280;24553;51.640;-0.752;2023-03-03T06:34:46;102019.53;;;6.17;100.00
38812;BME280;24553;51.640;-0.752;2023-03-03T06:37:11;102025.28;;;6.11;100.00
38812;BME280;24553;51.640;-0.752;2023-03-03T06:39:36;102028.63;;;6.13;100.00
38812;BME280;24553;51.640;-0.752;2023-03-03T06:42:02;102028.63;;;6.13;100.00
38812;BME280;24553;51.640;-0.752;2023-03-03T06:44:27;102022.41;;;6.14;100.00
38812;BME280;24553;51.640;-0.752;2023-03-03T06:46:53;102022.78;;;6.09;100.00
38812;BME280;24553;51.640;-0.752;2023-03-03T06:49:21;102024.91;;;6.16;100.00
38812;BME280;24553;51.640;-0.752;2023-03-03T06:51:46;102023.47;;;6.23;100.00
38812;BME280;24553;51.640;-0.752;2023-03-03T06:54:17;102030.16;;;6.27;100.00
38812;BME280;24553;51.640;-0.752;2023-03-03T06:56:44;102031.00;;;6.27;100.00
38812;BME280;24553;51.640;-0.752;2023-03-03T06:59:18;102028.47;;;6.26;100.00
38812;BME280;24553;51.640;-0.752;2023-03-03T07:01:45;102036.13;;;6.29;100.00
38812;BME280;24553;51.640;-0.752;2023-03-03T07:04:31;102036.97;;;6.29;100.00
38812;BME280;24553;51.640;-0.752;2023-03-03T07:07:06;102044.28;;;6.26;100.00
38812;BME280;24553;51.640;-0.752;2023-03-03T07:09:32;102046.56;;;6.30;100.00
38812;BME280;24553;51.640;-0.752;2023-03-03T07:12:04;102042.84;;;6.22;100.00
38812;BME280;24553;51.640;-0.752;2023-03-03T07:14:31;102042.78;;;6.12;100.00
38812;BME280;24553;51.640;-0.752;2023-03-03T07:17:03;102047.06;;;6.13;100.00
38812;BME280;24553;51.640;-0.752;2023-03-03T07:19:33;102048.00;;;6.23;100.00
38812;BME280;24553;51.640;-0.752;2023-03-03T07:22:07;102053.75;;;6.28;100.00
38812;BME280;24553;51.640;-0.752;2023-03-03T07:24:36;102051.69;;;6.32;100.00
38812;BME280;24553;51.640;-0.752;2023-03-03T07:29:29;102062.88;;;6.45;100.00
38812;BME280;24553;51.640;-0.752;2023-03-03T07:31:57;102062.25;;;6.53;100.00
38812;BME280;24553;51.640;-0.752;2023-03-03T07:34:30;102065.88;;;6.52;100.00
38812;BME280;24553;51.640;-0.752;2023-03-03T07:37:03;102069.22;;;6.54;100.00
38812;BME280;24553;51.640;-0.752;2023-03-03T07:39:35;102070.63;;;6.58;100.00
38812;BME280;24553;51.640;-0.752;2023-03-03T07:44:33;102074.41;;;6.44;100.00
38812;BME280;24553;51.640;-0.752;2023-03-03T07:47:28;102080.03;;;6.51;100.00
38812;BME280;24553;51.640;-0.752;2023-03-03T07:50:13;102074.97;;;6.48;100.00
38812;BME280;24553;51.640;-0.752;2023-03-03T07:52:42;102074.97;;;6.48;100.00
38812;BME280;24553;51.640;-0.752;2023-03-03T07:55:40;102080.94;;;6.61;100.00
38812;BME280;24553;51.640;-0.752;2023-03-03T08:03:42;102096.59;;;6.74;100.00
38812;BME280;24553;51.640;-0.752;2023-03-03T08:08:54;102092.63;;;6.68;100.00
38812;BME280;24553;51.640;-0.752;2023-03-03T08:11:23;102099.59;;;6.69;100.00
38812;BME280;24553;51.640;-0.752;2023-03-03T08:13:49;102103.25;;;6.78;100.00
38812;BME280;24553;51.640;-0.752;2023-03-03T08:18:50;102100.81;;;6.86;100.00
38812;BME280;24553;51.640;-0.752;2023-03-03T08:21:22;102107.53;;;6.90;100.00
38812;BME280;24553;51.640;-0.752;2023-03-03T08:23:48;102109.19;;;6.91;100.00
38812;BME280;24553;51.640;-0.752;2023-03-03T08:26:16;102116.19;;;7.02;100.00
38812;BME280;24553;51.640;-0.752;2023-03-03T08:28:42;102115.97;;;7.05;100.00
38812;BME280;24553;51.640;-0.752;2023-03-03T08:31:07;102108.44;;;7.01;100.00
38812;BME280;24553;51.640;-0.752;2023-03-03T08:33:33;102115.72;;;7.08;100.00
38812;BME280;24553;51.640;-0.752;2023-03-03T08:35:58;102109.19;;;7.12;100.00
38812;BME280;24553;51.640;-0.752;2023-03-03T08:38:24;102116.03;;;7.15;100.00
38812;BME280;24553;51.640;-0.752;2023-03-03T08:40:49;102116.44;;;7.10;100.00
38812;BME280;24553;51.640;-0.752;2023-03-03T08:43:15;102123.81;;;7.16;100.00
38812;BME280;24553;51.640;-0.752;2023-03-03T08:45:47;102119.56;;;7.25;100.00
38812;BME280;24553;51.640;-0.752;2023-03-03T08:48:14;102121.97;;;7.28;100.00
38812;BME280;24553;51.640;-0.752;2023-03-03T08:50:40;102115.59;;;7.31;100.00
38812;BME280;24553;51.640;-0.752;2023-03-03T08:53:06;102114.72;;;7.30;100.00
38812;BME280;24553;51.640;-0.752;2023-03-03T08:55:31;102121.38;;;7.25;100.00
38812;BME280;24553;51.640;-0.752;2023-03-03T08:57:56;102114.72;;;7.30;100.00
38812;BME280;24553;51.640;-0.752;2023-03-03T09:00:22;102120.00;;;7.30;100.00
38812;BME280;24553;51.640;-0.752;2023-03-03T09:02:48;102114.50;;;7.33;100.00
38812;BME280;24553;51.640;-0.752;2023-03-03T09:05:15;102120.66;;;7.43;100.00
38812;BME280;24553;51.640;-0.752;2023-03-03T09:07:43;102116.03;;;7.36;100.00
38812;BME280;24553;51.640;-0.752;2023-03-03T09:10:10;102126.44;;;7.37;100.00
38812;BME280;24553;51.640;-0.752;2023-03-03T09:12:39;102130.72;;;7.29;100.00
38812;BME280;24553;51.640;-0.752;2023-03-03T09:15:15;102128.63;;;7.32;100.00
38812;BME280;24553;51.640;-0.752;2023-03-03T09:17:43;102130.91;;;7.37;100.00
38812;BME280;24553;51.640;-0.752;2023-03-03T09:22:49;102134.53;;;7.46;100.00
38812;BME280;24553;51.640;-0.752;2023-03-03T09:25:26;102133.28;;;7.40;100.00
38812;BME280;24553;51.640;-0.752;2023-03-03T09:27:56;102138.44;;;7.41;100.00
38812;BME280;24553;51.640;-0.752;2023-03-03T09:32:49;102141.44;;;7.37;100.00
38812;BME280;24553;51.640;-0.752;2023-03-03T09:38:17;102139.81;;;7.46;100.00
38812;BME280;24553;51.640;-0.752;2023-03-03T09:41:00;102139.31;;;7.52;100.00
38812;BME280;24553;51.640;-0.752;2023-03-03T09:43:36;102139.06;;;7.55;100.00
38812;BME280;24553;51.640;-0.752;2023-03-03T09:46:27;102145.72;;;7.59;100.00
38812;BME280;24553;51.640;-0.752;2023-03-03T09:54:29;102154.97;;;7.64;100.00
38812;BME280;24553;51.640;-0.752;2023-03-03T09:57:13;102147.28;;;7.61;100.00
38812;BME280;24553;51.640;-0.752;2023-03-03T10:00:04;102152.69;;;7.60;100.00
38812;BME280;24553;51.640;-0.752;2023-03-03T10:11:09;102164.22;;;7.38;100.00
38812;BME280;24553;51.640;-0.752;2023-03-03T10:13:54;102158.94;;;7.38;100.00
38812;BME280;24553;51.640;-0.752;2023-03-03T10:16:45;102159.91;;;7.37;100.00
38812;BME280;24553;51.640;-0.752;2023-03-03T10:22:00;102166.28;;;7.13;100.00
38812;BME280;24553;51.640;-0.752;2023-03-03T10:35:30;102173.06;;;7.79;100.00
38812;BME280;24553;51.640;-0.752;2023-03-03T10:57:33;102172.19;;;7.69;100.00
38812;BME280;24553;51.640;-0.752;2023-03-03T11:00:23;102176.78;;;7.97;100.00
38812;BME280;24553;51.640;-0.752;2023-03-03T11:08:45;102175.16;;;8.16;100.00
38812;BME280;24553;51.640;-0.752;2023-03-03T11:14:37;102177.75;;;7.96;100.00
38812;BME280;24553;51.640;-0.752;2023-03-03T11:33:14;102186.81;;;8.34;100.00
38812;BME280;24553;51.640;-0.752;2023-03-03T11:36:08;102183.72;;;8.39;100.00
38812;BME280;24553;51.640;-0.752;2023-03-03T11:38:48;102182.28;;;8.56;100.00
38812;BME280;24553;51.640;-0.752;2023-03-03T11:41:38;102185.09;;;8.64;100.00
38812;BME280;24553;51.640;-0.752;2023-03-03T11:44:20;102177.44;;;8.70;100.00
38812;BME280;24553;51.640;-0.752;2023-03-03T11:49:38;102183.41;;;8.63;100.00
38812;BME280;24553;51.640;-0.752;2023-03-03T11:52:17;102177.56;;;8.49;100.00
38812;BME280;24553;51.640;-0.752;2023-03-03T11:57:38;102174.81;;;8.30;100.00
38812;BME280;24553;51.640;-0.752;2023-03-03T12:06:16;102182.91;;;8.38;100.00
38812;BME280;24553;51.640;-0.752;2023-03-03T12:11:24;102173.94;;;8.20;100.00
38812;BME280;24553;51.640;-0.752;2023-03-03T12:25:19;102172.81;;;7.82;100.00
38812;BME280;24553;51.640;-0.752;2023-03-03T12:33:09;102161.41;;;7.81;100.00
38812;BME280;24553;51.640;-0.752;2023-03-03T12:35:42;102163.44;;;7.99;100.00
38812;BME280;24553;51.640;-0.752;2023-03-03T12:48:43;102154.66;;;8.29;100.00
38812;BME280;24553;51.640;-0.752;2023-03-03T12:54:27;102155.31;;;8.21;100.00
38812;BME280;24553;51.640;-0.752;2023-03-03T12:59:57;102155.09;;;8.34;100.00
38812;BME280;24553;51.640;-0.752;2023-03-03T13:02:40;102156.94;;;8.03;100.00
38812;BME280;24553;51.640;-0.752;2023-03-03T13:05:13;102151.34;;;7.96;100.00
38812;BME280;24553;51.640;-0.752;2023-03-03T13:07:44;102156.06;;;7.93;100.00
38812;BME280;24553;51.640;-0.752;2023-03-03T13:10:25;102148.69;;;7.96;100.00
38812;BME280;24553;51.640;-0.752;2023-03-03T13:13:02;102157.34;;;7.98;100.00
38812;BME280;24553;51.640;-0.752;2023-03-03T13:15:35;102153.81;;;7.88;100.00
38812;BME280;24553;51.640;-0.752;2023-03-03T13:18:18;102153.81;;;7.88;100.00
38812;BME280;24553;51.640;-0.752;2023-03-03T13:23:45;102149.16;;;8.42;100.00
38812;BME280;24553;51.640;-0.752;2023-03-03T13:26:21;102148.91;;;8.55;100.00
38812;BME280;24553;51.640;-0.752;2023-03-03T13:31:39;102144.31;;;8.76;100.00
38812;BME280;24553;51.640;-0.752;2023-03-03T13:34:07;102141.13;;;8.63;100.00
38812;BME280;24553;51.640;-0.752;2023-03-03T13:36:43;102142.63;;;8.56;100.00
38812;BME280;24553;51.640;-0.752;2023-03-03T13:39:33;102145.91;;;8.38;100.00
38812;BME280;24553;51.640;-0.752;2023-03-03T13:42:07;102144.00;;;8.40;100.00
38812;BME280;24553;51.640;-0.752;2023-03-03T13:44:41;102143.53;;;8.35;100.00
38812;BME280;24553;51.640;-0.752;2023-03-03T13:47:30;102142.75;;;8.44;100.00
38812;BME280;24553;51.640;-0.752;2023-03-03T13:50:16;102144.72;;;8.52;100.00
38812;BME280;24553;51.640;-0.752;2023-03-03T13:55:43;102141.22;;;8.42;100.00
38812;BME280;24553;51.640;-0.752;2023-03-03T13:58:27;102148.72;;;8.46;100.00
38812;BME280;24553;51.640;-0.752;2023-03-03T14:06:40;102140.31;;;8.22;100.00
38812;BME280;24553;51.640;-0.752;2023-03-03T14:09:39;102139.44;;;8.12;100.00
38812;BME280;24553;51.640;-0.752;2023-03-03T14:17:52;102134.28;;;8.10;100.00
38812;BME280;24553;51.640;-0.752;2023-03-03T14:20:40;102134.00;;;8.03;100.00
38812;BME280;24553;51.640;-0.752;2023-03-03T14:26:11;102137.03;;;7.68;100.00
38812;BME280;24553;51.640;-0.752;2023-03-03T14:28:39;102142.41;;;7.57;100.00
38812;BME280;24553;51.640;-0.752;2023-03-03T14:31:16;102143.78;;;7.51;100.00
38812;BME280;24553;51.640;-0.752;2023-03-03T14:34:00;102142.69;;;7.63;100.00
38812;BME280;24553;51.640;-0.752;2023-03-03T14:36:39;102134.59;;;7.55;100.00
38812;BME280;24553;51.640;-0.752;2023-03-03T14:39:29;102139.13;;;7.64;100.00
38812;BME280;24553;51.640;-0.752;2023-03-03T14:41:56;102129.47;;;7.54;100.00
38812;BME280;24553;51.640;-0.752;2023-03-03T14:44:35;102133.44;;;7.48;100.00
38812;BME280;24553;51.640;-0.752;2023-03-03T14:47:17;102120.47;;;7.56;100.00
38812;BME280;24553;51.640;-0.752;2023-03-03T14:49:45;102130.31;;;7.54;100.00
38812;BME280;24553;51.640;-0.752;2023-03-03T14:54:38;102116.34;;;7.73;100.00
38812;BME280;24553;51.640;-0.752;2023-03-03T14:57:17;102115.53;;;7.73;100.00
38812;BME280;24553;51.640;-0.752;2023-03-03T15:05:30;102105.84;;;7.83;100.00
38812;BME280;24553;51.640;-0.752;2023-03-03T15:10:34;102093.63;;;7.92;100.00
38812;BME280;24553;51.640;-0.752;2023-03-03T15:18:31;102086.69;;;7.91;100.00
38812;BME280;24553;51.640;-0.752;2023-03-03T15:23:47;102081.53;;;7.89;100.00
38812;BME280;24553;51.640;-0.752;2023-03-03T15:42:09;102073.25;;;8.03;100.00
38812;BME280;24553;51.640;-0.752;2023-03-03T15:44:58;102066.00;;;8.15;100.00
38812;BME280;24553;51.640;-0.752;2023-03-03T15:50:43;102064.19;;;8.16;100.00
38812;BME280;24553;51.640;-0.752;2023-03-03T16:01:33;102061.94;;;7.92;100.00
38812;BME280;24553;51.640;-0.752;2023-03-03T16:04:14;102066.22;;;7.83;100.00
38812;BME280;24553;51.640;-0.752;2023-03-03T16:06:46;102061.38;;;7.88;100.00
38812;BME280;24553;51.640;-0.752;2023-03-03T16:09:46;102067.81;;;7.95;100.00
38812;BME280;24553;51.640;-0.752;2023-03-03T16:12:54;102070.41;;;7.85;100.00
38812;BME280;24553;51.640;-0.752;2023-03-03T16:18:07;102064.03;;;7.88;100.00
38812;BME280;24553;51.640;-0.752;2023-03-03T16:23:51;102065.31;;;8.03;100.00
38812;BME280;24553;51.640;-0.752;2023-03-03T16:37:03;102065.88;;;8.17;100.00
38812;BME280;24553;51.640;-0.752;2023-03-03T16:39:41;102073.94;;;8.05;100.00
38812;BME280;24553;51.640;-0.752;2023-03-03T16:42:16;102078.91;;;7.99;100.00
38812;BME280;24553;51.640;-0.752;2023-03-03T16:45:08;102085.84;;;8.00;100.00
38812;BME280;24553;51.640;-0.752;2023-03-03T16:56:38;102091.53;;;7.55;100.00
38812;BME280;24553;51.640;-0.752;2023-03-03T17:02:17;102089.06;;;7.63;100.00
38812;BME280;24553;51.640;-0.752;2023-03-03T17:04:51;102090.16;;;7.60;100.00
38812;BME280;24553;51.640;-0.752;2023-03-03T17:10:31;102104.03;;;7.53;100.00